D/T METAR WX W/DIR W/SPE G/SPE TEMP DEWP
23/08/19 14:50 EGYE 231350Z 18007KT 9999 FEW035 ///// Q1023 RMK BLU S (180°) 8.1mph 0°C 0°C
23/08/19 13:50 EGYE 231250Z 22008KT 9999 FEW030 SCT250 ///// Q1023 SW (220°) 9.2mph 0°C 0°C
23/08/19 12:50 EGYE 231150Z 20009KT 9999 FEW028 SCT260 ///// Q1024 RMK BLU SSW (200°) 10.4mph 0°C 0°C
23/08/19 10:50 EGYE 230950Z 20008KT 9999 FEW018 BKN250 ///// Q1024 RMK BLU SSW (200°) 9.2mph 0°C 0°C
23/08/19 09:50 EGYE 230850Z 27003KT 9999 FEW015 SCT250 ///// Q1024 RMK BLU W (270°) 3.5mph 0°C 0°C
23/08/19 08:50 EGYE 230750Z 27006KT CAVOK ///// Q1024 RMK BLU W (270°) 6.9mph 0°C 0°C
23/08/19 07:50 EGYE 230650Z 25008KT CAVOK ///// Q1024 RMK BLU WSW (250°) 9.2mph 0°C 0°C
22/08/19 14:50 EGYE 221350Z 21011KT 9999 BKN030 ///// Q1021 BLU SSW (210°) 12.7mph 0°C 0°C
22/08/19 13:50 EGYE 221250Z 21013KT 9999 BKN030 BKN080 ///// Q1022 BLU SSW (210°) 15.0mph 0°C 0°C
22/08/19 12:50 EGYE 221150Z 21010KT 9999 BKN025 BKN250 ///// Q1022 RMK BLU SSW (210°) 11.5mph 0°C 0°C
22/08/19 11:50 EGYE 221050Z 23009KT 9999 SCT023 BKN250 ///// Q1022 RMK WHT SW (230°) 10.4mph 0°C 0°C
22/08/19 09:50 EGYE 220850Z 22012KT 9999 SCT020 BKN250 ///// Q1022 RMK WHT SW (220°) 13.8mph 0°C 0°C
22/08/19 08:50 EGYE 220750Z 22010KT 9999 FEW022 SCT240 ///// Q1022 RMK BLU SW (220°) 11.5mph 0°C 0°C
22/08/19 07:50 EGYE 220650Z 22011KT 9999 FEW040 SCT100 ///// Q1022 RMK BLU SW (220°) 12.7mph 0°C 0°C
21/08/19 15:50 EGYE 211450Z 21009KT 9999 SCT040 BKN250 ///// Q1024 RMK BLU SSW (210°) 10.4mph 0°C 0°C
21/08/19 14:50 EGYE 211350Z 23009KT 9999 FEW045 BKN250 ///// Q1024 RMK BLU SW (230°) 10.4mph 0°C 0°C
21/08/19 13:50 EGYE 211250Z 24009KT 9999 SCT028 ///// Q1025 RMK BLU WSW (240°) 10.4mph 0°C 0°C
21/08/19 12:50 EGYE 211150Z 22011KT 9999 FEW028 SCT250 ///// Q1025 RMK BLU SW (220°) 12.7mph 0°C 0°C
21/08/19 11:50 EGYE 211050Z 24013KT 9999 FEW024 SCT250 ///// Q1025 RMK BLU WSW (240°) 15.0mph 0°C 0°C
21/08/19 10:50 EGYE 210950Z 25014KT 9999 FEW020 BKN250 ///// Q1026 RMK BLU WSW (250°) 16.1mph 0°C 0°C
21/08/19 08:50 EGYE 210750Z 23011KT 9999 FEW012 BKN250 ///// Q1025 RMK BLU SW (230°) 12.7mph 0°C 0°C
21/08/19 07:50 EGYE 210650Z 23009KT CAVOK ///// Q1025 RMK BLU SW (230°) 10.4mph 0°C 0°C
20/08/19 14:50 EGYE 201350Z 28014KT 9999 SCT036 ///// Q1022 RMK BLU W (280°) 16.1mph 0°C 0°C
20/08/19 12:50 EGYE 201150Z 26012KT 9999 SCT026 SCT080 ///// Q1021 RMK BLU W (260°) 13.8mph 0°C 0°C
20/08/19 09:50 EGYE 200850Z 27012KT 9999 FEW020 BKN060 ///// Q1020 RMK BLU W (270°) 13.8mph 0°C 0°C
20/08/19 08:50 EGYE 200750Z 25014KT 9999 FEW015 ///// Q1020 RMK BLU WSW (250°) 16.1mph 0°C 0°C
20/08/19 07:50 EGYE 200650Z 24011KT 9999 FEW040 ///// Q1019 RMK BLU WSW (240°) 12.7mph 0°C 0°C
19/08/19 15:50 EGYE 191450Z 26015KT 9999 FEW035CB BKN080 ///// Q1012 RMK BLU W (260°) 17.3mph 0°C 0°C
19/08/19 13:50 EGYE 191250Z 24013KT 9999 SCT038 ///// Q1012 RMK BLU WSW (240°) 15.0mph 0°C 0°C
19/08/19 12:50 EGYE 191150Z 27012KT 9999 SCT030 ///// Q1011 RMK BLU W (270°) 13.8mph 0°C 0°C
19/08/19 10:50 EGYE 190950Z 23012KT 9999 FEW025 ///// Q1011 RMK BLU SW (230°) 13.8mph 0°C 0°C
19/08/19 08:50 EGYE 190750Z 24013KT 9999 SCT014 SCT030 ///// Q1010 RMK GRN WSW (240°) 15.0mph 0°C 0°C
16/08/19 09:50 EGYE 160850Z 19012KT 9999 FEW015 BKN045 OVC250 ///// Q1010 RMK BLU S (190°) 13.8mph 0°C 0°C
16/08/19 08:50 EGYE 160750Z 19011KT 9999 FEW045 SCT150 BKN250 ///// Q1011 RMK BLU S (190°) 12.7mph 0°C 0°C
16/08/19 07:50 EGYE 160650Z 18010KT CAVOK ///// Q1012 RMK BLU S (180°) 11.5mph 0°C 0°C
15/08/19 15:50 EGYE 151450Z 29023KT 9999 SCT036 ///// Q1012 RMK BLU WNW (290°) 26.5mph 0°C 0°C
15/08/19 14:50 EGYE 151350Z 28018G28KT 9999 FEW035 ///// Q1011 RMK BLU W (280°) 20.7mph 32.2mph 0°C 0°C
15/08/19 10:50 EGYE 150950Z 26016G27KT 9999 BKN016 //// Q1008 RMK WHT W (260°) 18.4mph 31.1mph 0°C 0°C
15/08/19 09:50 EGYE 150850Z 27021KT 9999 BKN014 ///// Q1007 RMK GRN W (270°) 24.2mph 0°C 0°C
15/08/19 08:50 EGYE 150750Z 27016G27KT 9999 BKN015 ///// Q1007 RMK WHT W (270°) 18.4mph 31.1mph 0°C 0°C
15/08/19 07:50 EGYE 150650Z 26013G24KT 9999 FEW010 ///// Q1006 RMK BLU W (260°) 15.0mph 27.6mph 0°C 0°C
14/08/19 10:50 EGYE 140950Z 18017KT 9999 SCT010 BKN040 OVC050 ///// Q1011 BLU S (180°) 19.6mph 0°C 0°C
14/08/19 09:50 EGYE 140850Z 18015KT 9999 SCT010 ///// Q1012 RMK GRN S (180°) 17.3mph 0°C 0°C
14/08/19 08:50 EGYE 140750Z 15008KT 9999 FEW007 SCT040 SCT090 ///// Q1013 RMK BLU SSE (150°) 9.2mph 0°C 0°C
14/08/19 07:50 EGYE 140650Z 15006KT 9999 FEW006 BKN040 BKN060 ///// Q1013 RMK BLU SSE (150°) 6.9mph 0°C 0°C
13/08/19 15:50 EGYE 131450Z 28013KT 9999 FEW035 SCT060 ///// Q1016 RMK BLU W (280°) 15.0mph 0°C 0°C
13/08/19 14:50 EGYE 131350Z 32011KT 9999 FEW030CB BKN035 ///// Q1016 RMK BLU NW (320°) 12.7mph 0°C 0°C
13/08/19 13:50 EGYE 131250Z 25014KT 9999 SCT040 ///// Q1016 RMK BLU BLU WSW (250°) 16.1mph 0°C 0°C